Time;durP1;ratioP1;P1;durP2;ratioP2;P2;SDS_P1;SDS_P2;PMS_P1;PMS_P2;Temp;Humidity;BMP_temperature;BMP_pressure;BME280_temperature;BME280_humidity;BME280_pressure;Samples;Min_cycle;Max_cycle;Signal;HPM_P1;HPM_P2
2023/08/28 00:00:48;;;;;;;6.70;6.20;;;17.80;35.60;;;;;;5031096;28;20600;-78
2023/08/28 00:03:14;;;;;;;5.40;5.20;;;17.80;35.80;;;;;;5030675;28;20176;-78
2023/08/28 00:05:40;;;;;;;5.87;5.43;;;17.90;35.80;;;;;;5031994;28;20184;-77
2023/08/28 00:08:06;;;;;;;6.13;5.83;;;18.10;35.20;;;;;;5031740;28;20192;-77
2023/08/28 00:10:31;;;;;;;5.83;5.53;;;18.30;34.30;;;;;;5031910;28;20176;-76
2023/08/28 00:12:57;;;;;;;6.00;5.80;;;18.40;33.70;;;;;;5030581;28;20957;-76
2023/08/28 00:15:22;;;;;;;6.47;6.23;;;18.40;33.70;;;;;;5030438;28;20222;-77
2023/08/28 00:17:48;;;;;;;6.00;5.73;;;18.40;32.60;;;;;;5031691;28;20216;-76
2023/08/28 00:20:15;;;;;;;6.17;5.87;;;18.30;32.20;;;;;;5030552;28;20161;-76
2023/08/28 00:22:41;;;;;;;6.30;6.00;;;18.10;33.00;;;;;;5030908;28;20206;-76
2023/08/28 00:25:09;;;;;;;6.30;6.10;;;18.00;33.40;;;;;;5030717;28;20486;-76
2023/08/28 00:27:35;;;;;;;6.40;6.10;;;17.90;33.80;;;;;;5034609;28;20247;-76
2023/08/28 00:30:03;;;;;;;6.03;5.60;;;18.00;33.80;;;;;;5033918;28;20407;-77
2023/08/28 00:32:29;;;;;;;6.53;6.33;;;18.10;33.80;;;;;;5035628;28;20818;-77
2023/08/28 00:34:54;;;;;;;6.00;5.80;;;18.20;33.40;;;;;;5035073;28;20414;-76
2023/08/28 00:37:20;;;;;;;6.90;6.50;;;18.40;32.90;;;;;;5034451;28;20204;-76
2023/08/28 00:39:46;;;;;;;6.10;5.90;;;18.50;31.60;;;;;;5035627;28;20624;-79
2023/08/28 00:42:12;;;;;;;6.50;6.13;;;18.40;31.90;;;;;;5035653;28;20287;-78
2023/08/28 00:44:37;;;;;;;7.00;6.60;;;18.50;32.20;;;;;;5036619;28;20669;-79
2023/08/28 00:47:03;;;;;;;6.13;5.80;;;18.60;31.70;;;;;;5034885;28;20192;-78
2023/08/28 00:49:30;;;;;;;6.73;6.33;;;18.70;31.90;;;;;;5035972;28;20177;-78
2023/08/28 00:51:56;;;;;;;6.73;6.43;;;18.80;31.90;;;;;;5036136;28;20473;-79
2023/08/28 00:54:21;;;;;;;6.40;6.20;;;18.70;30.40;;;;;;5035469;28;20498;-79
2023/08/28 00:56:47;;;;;;;6.07;5.87;;;18.70;31.10;;;;;;5035301;28;20486;-77
2023/08/28 00:59:15;;;;;;;6.10;5.60;;;18.70;31.70;;;;;;5034037;28;20207;-77
2023/08/28 01:01:40;;;;;;;5.70;5.50;;;18.80;30.90;;;;;;5034808;28;20549;-78
2023/08/28 01:04:06;;;;;;;6.27;6.07;;;18.80;30.60;;;;;;5034282;28;20443;-78
2023/08/28 01:06:51;;;;;;;7.00;6.70;;;18.90;31.20;;;;;;5035007;28;20192;-78
2023/08/28 01:09:43;;;;;;;6.73;6.17;;;18.70;31.90;;;;;;5033417;28;20164;-77
2023/08/28 01:12:36;;;;;;;6.20;6.00;;;18.60;32.80;;;;;;5034445;28;20411;-78
2023/08/28 01:15:17;;;;;;;6.67;6.47;;;18.70;32.70;;;;;;5033030;28;20420;-77
2023/08/28 01:17:45;;;;;;;6.83;6.33;;;18.80;32.50;;;;;;5033530;28;20454;-78
2023/08/28 01:20:12;;;;;;;7.73;7.03;;;18.80;31.30;;;;;;5033918;28;20929;-77
2023/08/28 01:22:58;;;;;;;6.50;6.00;;;18.90;30.90;;;;;;5032394;28;20458;-76
2023/08/28 01:25:25;;;;;;;6.73;6.30;;;18.90;30.70;;;;;;5034002;28;20418;-77
2023/08/28 01:27:52;;;;;;;6.27;5.97;;;18.90;30.40;;;;;;5033660;28;20920;-78
2023/08/28 01:30:18;;;;;;;6.37;6.17;;;19.00;30.40;;;;;;5033060;28;20438;-78
2023/08/28 01:32:45;;;;;;;6.93;6.43;;;19.00;30.30;;;;;;5033717;28;20481;-77
2023/08/28 01:35:17;;;;;;;6.00;5.60;;;19.00;29.80;;;;;;5033851;28;20776;-77
2023/08/28 01:37:49;;;;;;;6.60;6.10;;;19.00;29.50;;;;;;5032298;28;20431;-78
2023/08/28 01:40:17;;;;;;;6.10;5.83;;;19.00;29.30;;;;;;5033383;28;20418;-78
2023/08/28 01:42:49;;;;;;;6.07;5.80;;;19.00;29.00;;;;;;5032292;28;20471;-79
2023/08/28 01:45:15;;;;;;;6.07;5.80;;;19.00;29.40;;;;;;5032585;28;20477;-78
2023/08/28 01:47:41;;;;;;;7.30;6.60;;;19.00;29.00;;;;;;5031345;28;20812;-79
2023/08/28 01:50:07;;;;;;;6.47;6.17;;;19.00;28.50;;;;;;5032646;28;20403;-77
2023/08/28 01:52:33;;;;;;;6.60;6.30;;;19.00;29.00;;;;;;5032006;28;20180;-78
2023/08/28 01:54:59;;;;;;;6.50;6.10;;;19.00;29.30;;;;;;5032417;28;20624;-77
2023/08/28 01:57:24;;;;;;;6.40;5.90;;;19.00;29.30;;;;;;5032897;28;20254;-78
2023/08/28 01:59:50;;;;;;;6.27;6.00;;;19.00;29.30;;;;;;5033018;28;20225;-79
2023/08/28 02:02:15;;;;;;;6.87;6.20;;;19.00;29.30;;;;;;5032946;28;20210;-79
2023/08/28 02:04:41;;;;;;;6.57;6.17;;;18.90;29.20;;;;;;5033405;28;20168;-76
2023/08/28 02:07:06;;;;;;;6.97;6.57;;;18.90;29.30;;;;;;5033462;28;20188;-76
2023/08/28 02:09:32;;;;;;;6.60;6.30;;;18.90;29.50;;;;;;5033262;28;20168;-78
2023/08/28 02:11:58;;;;;;;7.10;6.70;;;18.90;29.70;;;;;;5031640;28;20237;-77
2023/08/28 02:14:23;;;;;;;6.30;6.00;;;18.90;29.90;;;;;;5033327;28;20565;-77
2023/08/28 02:16:49;;;;;;;7.03;6.67;;;18.90;30.10;;;;;;5031380;28;20702;-77
2023/08/28 02:19:14;;;;;;;6.57;6.17;;;18.90;30.00;;;;;;5032948;28;20580;-78
2023/08/28 02:21:40;;;;;;;6.10;5.90;;;18.90;30.00;;;;;;5032663;28;20704;-78
2023/08/28 02:24:06;;;;;;;6.77;6.53;;;18.90;30.30;;;;;;5032624;28;20226;-77
2023/08/28 02:26:32;;;;;;;6.50;6.27;;;18.90;30.20;;;;;;5033446;28;20191;-77
2023/08/28 02:28:57;;;;;;;6.20;5.90;;;18.90;29.90;;;;;;5033003;28;20490;-76
2023/08/28 02:31:23;;;;;;;5.97;5.67;;;18.90;29.50;;;;;;5032928;28;20196;-78
2023/08/28 02:33:49;;;;;;;6.90;6.50;;;18.90;29.80;;;;;;5033634;28;20177;-78
2023/08/28 02:36:15;;;;;;;6.23;5.93;;;18.90;29.20;;;;;;5033232;28;20172;-78
2023/08/28 02:38:40;;;;;;;6.27;6.00;;;18.90;29.20;;;;;;5033138;28;20415;-78
2023/08/28 02:41:09;;;;;;;6.97;6.47;;;18.90;29.30;;;;;;5031642;28;20232;-77
2023/08/28 02:43:37;;;;;;;6.93;6.53;;;18.80;29.40;;;;;;5034503;28;20173;-79
2023/08/28 02:46:03;;;;;;;6.70;6.40;;;18.90;29.60;;;;;;5036301;28;20948;-78
2023/08/28 02:48:28;;;;;;;7.17;6.87;;;18.80;29.10;;;;;;5046541;28;20408;-78
2023/08/28 02:50:55;;;;;;;7.27;6.80;;;18.80;29.20;;;;;;5037866;28;20176;-77
2023/08/28 02:53:21;;;;;;;6.70;6.40;;;18.80;29.10;;;;;;5035209;28;20287;-78
2023/08/28 02:56:21;;;;;;;7.23;6.83;;;18.80;29.10;;;;;;5041714;28;20458;-77
2023/08/28 02:58:46;;;;;;;6.83;6.53;;;18.80;29.10;;;;;;5034268;28;20180;-78
2023/08/28 03:01:12;;;;;;;6.70;6.43;;;18.80;29.70;;;;;;5033825;28;20462;-78
2023/08/28 03:03:37;;;;;;;7.03;6.73;;;18.80;30.00;;;;;;5033315;28;20186;-77
2023/08/28 03:06:03;;;;;;;7.70;7.40;;;18.80;29.90;;;;;;5032816;28;20227;-77
2023/08/28 03:08:29;;;;;;;7.17;6.87;;;18.80;30.00;;;;;;5030615;28;20227;-78
2023/08/28 03:10:55;;;;;;;7.73;7.40;;;18.80;30.00;;;;;;5032308;28;20199;-78
2023/08/28 03:13:20;;;;;;;7.30;7.00;;;18.80;29.80;;;;;;5031691;28;20412;-79
2023/08/28 03:15:46;;;;;;;7.30;6.97;;;18.80;29.80;;;;;;5032978;28;20172;-79
2023/08/28 03:18:11;;;;;;;7.43;7.13;;;18.70;29.30;;;;;;5032451;28;20628;-77
2023/08/28 03:20:37;;;;;;;6.83;6.63;;;18.70;30.00;;;;;;5032033;28;20677;-79
2023/08/28 03:23:03;;;;;;;7.27;6.77;;;18.70;30.60;;;;;;5032964;28;20530;-79
2023/08/28 03:25:28;;;;;;;7.90;7.50;;;18.70;30.00;;;;;;5033266;28;20181;-79
2023/08/28 03:27:54;;;;;;;7.20;6.90;;;18.70;30.50;;;;;;5032092;28;20189;-79
2023/08/28 03:30:20;;;;;;;7.70;7.40;;;18.70;30.60;;;;;;5032629;28;20243;-78
2023/08/28 03:32:45;;;;;;;8.33;7.83;;;18.60;30.90;;;;;;5033416;28;20246;-79
2023/08/28 03:35:11;;;;;;;8.20;7.80;;;18.70;30.90;;;;;;5032475;28;20481;-78
2023/08/28 03:37:36;;;;;;;7.97;7.20;;;18.60;30.80;;;;;;5032069;28;20298;-80
2023/08/28 03:40:04;;;;;;;7.87;7.57;;;18.60;31.10;;;;;;5032701;28;20180;-79
2023/08/28 03:42:29;;;;;;;7.73;7.33;;;18.60;31.00;;;;;;5031624;28;20200;-77
2023/08/28 03:44:55;;;;;;;7.70;7.30;;;18.50;30.70;;;;;;5032060;28;20423;-75
2023/08/28 03:47:20;;;;;;;7.90;7.60;;;18.50;30.80;;;;;;5031430;28;20199;-78
2023/08/28 03:49:46;;;;;;;7.50;7.20;;;18.50;30.10;;;;;;5031382;28;20717;-75
2023/08/28 03:52:11;;;;;;;7.70;7.40;;;18.50;29.90;;;;;;5031993;28;20661;-77
2023/08/28 03:54:39;;;;;;;7.60;7.30;;;18.50;29.80;;;;;;5032292;28;20195;-77
2023/08/28 03:57:06;;;;;;;8.13;7.53;;;18.60;29.60;;;;;;5032437;28;20201;-77
2023/08/28 03:59:31;;;;;;;8.33;7.53;;;18.60;29.60;;;;;;5032226;28;20897;-77
2023/08/28 04:01:57;;;;;;;8.30;7.90;;;18.60;29.70;;;;;;5035087;28;20509;-77
2023/08/28 04:04:22;;;;;;;8.20;7.90;;;18.60;30.00;;;;;;5032057;28;20260;-78
2023/08/28 04:06:48;;;;;;;8.80;8.17;;;18.60;29.80;;;;;;5031451;28;20599;-78
2023/08/28 04:09:14;;;;;;;8.53;8.13;;;18.60;30.00;;;;;;5032062;28;20578;-78
2023/08/28 04:11:40;;;;;;;8.70;8.17;;;18.60;30.10;;;;;;5031775;28;20315;-79
2023/08/28 04:14:06;;;;;;;8.10;7.80;;;18.60;30.20;;;;;;5031771;28;20469;-78
2023/08/28 04:16:32;;;;;;;8.73;8.23;;;18.50;30.30;;;;;;5032342;28;20199;-77
2023/08/28 04:18:57;;;;;;;8.43;8.03;;;18.50;30.40;;;;;;5031633;28;20183;-78
2023/08/28 04:21:23;;;;;;;8.40;7.90;;;18.60;30.60;;;;;;5032017;28;20957;-77
2023/08/28 04:23:48;;;;;;;8.80;8.30;;;18.60;30.50;;;;;;5031824;28;20183;-77
2023/08/28 04:26:14;;;;;;;8.80;8.30;;;18.60;30.50;;;;;;5031369;28;20181;-78
2023/08/28 04:28:39;;;;;;;8.33;7.93;;;18.50;30.00;;;;;;5031782;28;20173;-78
2023/08/28 04:31:08;;;;;;;8.90;8.60;;;18.50;30.50;;;;;;5032152;28;20268;-78
2023/08/28 04:33:33;;;;;;;8.63;8.23;;;18.50;30.90;;;;;;5031415;28;20181;-77
2023/08/28 04:35:59;;;;;;;8.33;8.07;;;18.50;31.40;;;;;;5030747;28;20773;-78
2023/08/28 04:38:24;;;;;;;9.00;8.60;;;18.50;31.30;;;;;;5030811;28;20200;-77
2023/08/28 04:40:50;;;;;;;9.13;8.73;;;18.40;30.60;;;;;;5031005;28;20244;-77
2023/08/28 04:43:15;;;;;;;8.10;7.80;;;18.40;31.10;;;;;;5030019;28;20537;-77
2023/08/28 04:45:41;;;;;;;8.27;7.97;;;18.40;31.00;;;;;;5030092;28;20172;-78
2023/08/28 04:48:07;;;;;;;8.20;7.77;;;18.40;31.10;;;;;;5030421;28;20188;-77
2023/08/28 04:50:32;;;;;;;8.30;7.90;;;18.50;31.20;;;;;;5032950;28;20169;-77
2023/08/28 04:52:58;;;;;;;8.00;7.70;;;18.40;31.30;;;;;;5034981;28;20189;-77
2023/08/28 04:55:23;;;;;;;8.80;8.40;;;18.40;31.40;;;;;;5035242;28;20628;-77
2023/08/28 04:57:49;;;;;;;9.43;8.97;;;18.40;31.30;;;;;;5036629;28;20192;-77
2023/08/28 05:00:15;;;;;;;8.00;7.70;;;18.40;31.30;;;;;;5035116;28;20181;-78
2023/08/28 05:02:40;;;;;;;9.17;8.77;;;18.40;31.20;;;;;;5034874;28;20287;-76
2023/08/28 05:05:06;;;;;;;9.97;9.37;;;18.40;31.80;;;;;;5034465;28;20415;-78
2023/08/28 05:07:32;;;;;;;9.17;8.60;;;18.30;32.00;;;;;;5031632;28;20189;-79
2023/08/28 05:09:57;;;;;;;8.60;8.30;;;18.30;31.90;;;;;;5030539;28;20434;-77
2023/08/28 05:12:23;;;;;;;10.00;9.40;;;18.30;32.10;;;;;;5030721;28;20191;-77
2023/08/28 05:14:48;;;;;;;9.10;8.60;;;18.30;31.90;;;;;;5034371;28;20180;-78
2023/08/28 05:17:14;;;;;;;8.83;8.50;;;18.30;31.60;;;;;;5033216;28;20223;-78
2023/08/28 05:19:39;;;;;;;9.70;9.30;;;18.30;31.90;;;;;;5033909;28;20177;-79
2023/08/28 05:22:05;;;;;;;8.67;8.17;;;18.30;32.10;;;;;;5035061;28;20219;-80
2023/08/28 05:24:30;;;;;;;9.20;8.80;;;18.30;32.30;;;;;;5035975;28;20238;-76
2023/08/28 05:26:56;;;;;;;9.20;8.90;;;18.30;32.30;;;;;;5034167;28;20193;-77
2023/08/28 05:29:21;;;;;;;8.87;8.37;;;18.30;33.10;;;;;;5032941;28;20183;-76
2023/08/28 05:31:47;;;;;;;8.60;8.20;;;18.30;32.80;;;;;;5033528;28;20349;-77
2023/08/28 05:34:12;;;;;;;9.93;9.53;;;18.30;32.50;;;;;;5033584;28;20176;-77
2023/08/28 05:36:38;;;;;;;9.63;9.13;;;18.30;32.30;;;;;;5034141;28;20196;-77
2023/08/28 05:39:04;;;;;;;9.70;9.40;;;18.30;32.20;;;;;;5014906;28;20182;-79
2023/08/28 05:41:29;;;;;;;10.60;10.20;;;18.30;32.70;;;;;;5014477;28;20212;-75
2023/08/28 05:43:55;;;;;;;10.03;9.43;;;18.20;32.30;;;;;;5024935;28;20260;-77
2023/08/28 05:46:20;;;;;;;10.10;9.60;;;18.10;33.30;;;;;;5032703;28;20200;-76
2023/08/28 05:48:46;;;;;;;9.87;9.47;;;18.10;32.70;;;;;;5031821;28;20169;-77
2023/08/28 05:51:12;;;;;;;10.53;9.87;;;18.10;33.50;;;;;;5030976;28;20659;-77
2023/08/28 05:53:37;;;;;;;10.23;9.63;;;18.20;33.40;;;;;;5030655;28;20173;-77
2023/08/28 05:56:03;;;;;;;9.77;9.30;;;18.20;33.30;;;;;;5031566;28;20482;-78
2023/08/28 05:58:29;;;;;;;10.40;9.90;;;18.20;33.60;;;;;;5031456;28;20238;-77
2023/08/28 06:00:54;;;;;;;9.97;9.40;;;18.30;32.90;;;;;;5031637;28;20179;-79
2023/08/28 06:03:20;;;;;;;10.47;9.80;;;18.20;33.00;;;;;;5030571;28;20176;-77
2023/08/28 06:05:45;;;;;;;9.20;8.90;;;18.20;33.20;;;;;;5033322;28;20303;-78
2023/08/28 06:08:11;;;;;;;9.57;9.17;;;18.20;33.30;;;;;;5033129;28;20227;-77
2023/08/28 06:10:40;;;;;;;10.63;10.00;;;18.10;33.20;;;;;;5032769;28;20176;-77
2023/08/28 06:13:06;;;;;;;11.23;10.67;;;17.90;34.30;;;;;;5032923;28;20663;-78
2023/08/28 06:15:32;;;;;;;10.50;10.13;;;17.90;34.60;;;;;;5033168;28;20422;-78
2023/08/28 06:17:57;;;;;;;10.93;10.53;;;17.90;34.40;;;;;;5031546;28;20522;-78
2023/08/28 06:20:23;;;;;;;10.50;10.10;;;17.90;35.80;;;;;;5025636;28;20279;-78
2023/08/28 06:22:48;;;;;;;11.20;10.40;;;18.00;34.70;;;;;;5022302;28;20205;-79
2023/08/28 06:25:14;;;;;;;10.40;9.87;;;18.10;34.20;;;;;;5027848;28;20169;-77
2023/08/28 06:27:39;;;;;;;10.80;10.40;;;18.10;34.00;;;;;;5031454;28;20197;-77
2023/08/28 06:30:06;;;;;;;11.37;10.90;;;18.10;33.90;;;;;;5024671;28;20181;-77
2023/08/28 06:32:32;;;;;;;11.50;10.70;;;18.10;34.40;;;;;;5031400;28;20287;-79
2023/08/28 06:34:58;;;;;;;11.50;10.90;;;18.00;34.80;;;;;;5028496;28;20763;-78
2023/08/28 06:37:24;;;;;;;10.67;10.13;;;18.00;35.10;;;;;;5020266;28;20444;-79
2023/08/28 06:39:51;;;;;;;10.93;10.43;;;18.00;35.60;;;;;;5021156;28;20485;-78
2023/08/28 06:42:17;;;;;;;10.67;10.17;;;18.00;35.50;;;;;;5027266;28;20200;-79
2023/08/28 06:44:43;;;;;;;10.70;10.10;;;18.00;35.40;;;;;;5033224;28;20470;-77
2023/08/28 06:47:08;;;;;;;10.30;9.80;;;18.00;35.40;;;;;;5032681;28;20192;-76
2023/08/28 06:49:33;;;;;;;10.90;10.17;;;18.00;35.70;;;;;;5032799;28;20256;-78
2023/08/28 06:51:59;;;;;;;10.00;9.50;;;18.10;35.90;;;;;;5032990;28;20207;-76
2023/08/28 06:54:25;;;;;;;10.33;9.83;;;18.00;36.20;;;;;;5032926;28;20260;-78
2023/08/28 06:56:51;;;;;;;11.57;11.07;;;18.10;35.90;;;;;;5031970;28;20193;-77
2023/08/28 06:59:17;;;;;;;10.90;10.40;;;18.10;35.60;;;;;;5033306;28;20262;-78
2023/08/28 07:01:43;;;;;;;10.03;9.63;;;18.10;36.00;;;;;;5030825;28;20552;-78
2023/08/28 07:04:08;;;;;;;10.77;10.27;;;18.00;35.90;;;;;;5033002;28;20169;-79
2023/08/28 07:06:34;;;;;;;10.23;9.73;;;18.00;36.20;;;;;;5031506;28;20439;-78
2023/08/28 07:09:00;;;;;;;10.30;9.90;;;17.90;36.50;;;;;;5032441;28;20547;-78
2023/08/28 07:11:25;;;;;;;10.00;9.60;;;17.80;36.80;;;;;;5032159;28;20188;-79
2023/08/28 07:13:53;;;;;;;10.80;10.30;;;17.80;37.90;;;;;;5032714;28;20181;-76
2023/08/28 07:16:18;;;;;;;11.07;10.37;;;17.60;38.20;;;;;;5032536;28;20178;-78
2023/08/28 07:18:44;;;;;;;12.00;11.20;;;17.60;38.20;;;;;;5032576;28;20419;-78
2023/08/28 07:21:09;;;;;;;12.13;11.43;;;17.70;38.20;;;;;;5032380;28;20543;-76
2023/08/28 07:23:36;;;;;;;11.10;10.57;;;17.80;37.70;;;;;;5032885;28;20173;-77
2023/08/28 07:26:03;;;;;;;11.50;10.80;;;17.90;38.00;;;;;;5032447;28;20192;-79
2023/08/28 07:28:29;;;;;;;11.30;10.60;;;18.00;37.10;;;;;;5032923;28;20408;-78
2023/08/28 07:30:58;;;;;;;11.80;11.20;;;18.10;36.80;;;;;;5032740;28;20418;-78
2023/08/28 07:33:24;;;;;;;10.37;9.87;;;18.10;36.90;;;;;;5034230;28;20407;-78
2023/08/28 07:35:49;;;;;;;11.40;10.70;;;18.20;36.50;;;;;;5033387;28;20961;-77
2023/08/28 07:38:15;;;;;;;12.97;12.33;;;18.10;36.10;;;;;;5033429;28;20215;-78
2023/08/28 07:40:41;;;;;;;11.97;11.37;;;18.10;36.40;;;;;;5033707;28;20168;-78
2023/08/28 07:43:07;;;;;;;11.70;11.20;;;18.10;37.10;;;;;;5034523;28;20207;-79
2023/08/28 07:45:32;;;;;;;10.53;10.03;;;18.20;36.30;;;;;;5033587;28;20165;-79
2023/08/28 07:47:59;;;;;;;12.00;11.40;;;18.20;35.60;;;;;;5033164;28;20199;-78
2023/08/28 07:50:26;;;;;;;12.13;11.63;;;18.20;35.30;;;;;;5033386;28;20161;-78
2023/08/28 07:52:51;;;;;;;11.33;10.73;;;18.10;35.80;;;;;;5033564;28;20486;-79
2023/08/28 07:55:17;;;;;;;11.80;11.20;;;18.20;36.10;;;;;;5032984;28;20419;-78
2023/08/28 07:57:42;;;;;;;12.17;11.37;;;18.10;36.10;;;;;;5033358;28;20238;-79
2023/08/28 08:00:13;;;;;;;10.33;9.73;;;18.10;37.10;;;;;;5032536;28;20647;-78
2023/08/28 08:02:38;;;;;;;11.77;11.00;;;18.10;36.70;;;;;;5033108;28;20208;-78
2023/08/28 08:05:04;;;;;;;11.13;10.70;;;18.10;37.20;;;;;;5032123;28;20418;-78
2023/08/28 08:07:32;;;;;;;9.93;9.43;;;18.00;36.40;;;;;;5033450;28;20442;-79
2023/08/28 08:09:58;;;;;;;10.50;10.10;;;18.10;36.50;;;;;;5033066;28;20415;-79
2023/08/28 08:12:23;;;;;;;11.77;11.07;;;18.10;35.60;;;;;;5034043;28;20852;-79
2023/08/28 08:14:49;;;;;;;11.73;11.10;;;18.10;34.80;;;;;;5033801;28;20176;-78
2023/08/28 08:17:14;;;;;;;11.83;11.23;;;18.00;34.60;;;;;;5033206;28;20342;-78
2023/08/28 08:19:40;;;;;;;12.50;11.33;;;18.00;34.80;;;;;;5032100;28;20554;-77
2023/08/28 08:22:06;;;;;;;11.00;10.50;;;18.00;34.60;;;;;;5033321;28;20196;-78
2023/08/28 08:24:32;;;;;;;10.10;9.70;;;18.00;34.30;;;;;;5032894;28;20169;-78
2023/08/28 08:26:57;;;;;;;10.87;10.37;;;18.00;34.20;;;;;;5033081;28;20802;-77
2023/08/28 08:29:24;;;;;;;10.27;9.67;;;17.90;34.50;;;;;;5031486;28;20185;-78
2023/08/28 08:31:51;;;;;;;10.80;10.20;;;18.00;34.30;;;;;;5032441;28;20169;-77
2023/08/28 08:34:18;;;;;;;10.10;9.60;;;18.00;33.20;;;;;;5031997;28;20478;-78
2023/08/28 08:36:43;;;;;;;9.70;9.20;;;18.10;32.70;;;;;;5032230;28;20444;-78
2023/08/28 08:39:09;;;;;;;9.90;9.50;;;18.10;32.60;;;;;;5032147;28;20438;-78
2023/08/28 08:41:36;;;;;;;9.17;8.80;;;18.10;30.70;;;;;;5030917;28;20208;-78
2023/08/28 08:44:02;;;;;;;8.50;8.10;;;18.20;29.60;;;;;;5031647;28;20173;-77
2023/08/28 08:46:27;;;;;;;9.90;9.30;;;18.20;29.30;;;;;;5032428;28;20447;-77
2023/08/28 08:48:56;;;;;;;8.97;8.37;;;18.30;28.40;;;;;;5035671;28;20658;-76
2023/08/28 08:51:25;;;;;;;9.97;9.47;;;18.30;27.30;;;;;;5035526;28;20643;-76
2023/08/28 08:54:09;;;;;;;9.10;8.80;;;18.40;26.70;;;;;;5035545;28;20512;-77
2023/08/28 08:56:37;;;;;;;9.10;8.70;;;18.30;27.10;;;;;;5036913;28;21071;-78
2023/08/28 08:59:03;;;;;;;8.43;8.10;;;18.30;26.20;;;;;;5036921;28;20411;-77
2023/08/28 09:01:30;;;;;;;8.70;8.20;;;18.30;26.20;;;;;;5036911;28;20546;-78
2023/08/28 09:03:59;;;;;;;8.20;7.90;;;18.30;26.00;;;;;;5037438;28;20475;-78
2023/08/28 09:06:29;;;;;;;9.30;8.80;;;18.30;25.70;;;;;;5036909;28;20433;-78
2023/08/28 09:08:55;;;;;;;8.93;8.53;;;18.30;25.80;;;;;;5037090;28;20490;-78
2023/08/28 09:11:21;;;;;;;8.80;8.50;;;18.40;25.90;;;;;;5036912;28;20431;-78
2023/08/28 09:13:46;;;;;;;9.30;8.80;;;18.50;25.30;;;;;;5037067;28;20473;-79
2023/08/28 09:16:12;;;;;;;8.53;8.10;;;18.30;26.00;;;;;;5034787;28;20180;-78
2023/08/28 09:18:38;;;;;;;9.50;8.80;;;18.40;26.20;;;;;;5033383;28;20246;-77
2023/08/28 09:21:11;;;;;;;8.33;7.93;;;18.50;26.10;;;;;;5032634;28;20419;-77
2023/08/28 09:23:45;;;;;;;8.83;8.40;;;18.40;25.60;;;;;;5033907;28;20416;-76
2023/08/28 09:26:16;;;;;;;9.60;9.13;;;18.20;26.40;;;;;;5033652;28;20408;-76
2023/08/28 09:28:41;;;;;;;8.77;8.47;;;18.10;26.50;;;;;;5033686;28;20411;-75
2023/08/28 09:31:07;;;;;;;8.73;8.30;;;18.20;26.80;;;;;;5034630;28;20979;-75
2023/08/28 09:33:45;;;;;;;8.60;7.93;;;18.30;26.10;;;;;;5035321;28;20445;-75
2023/08/28 09:36:16;;;;;;;9.20;8.80;;;18.40;26.30;;;;;;5034731;28;20181;-76
2023/08/28 09:38:42;;;;;;;8.47;8.17;;;18.50;26.30;;;;;;5034320;28;20937;-76
2023/08/28 09:41:09;;;;;;;8.40;8.10;;;18.50;26.90;;;;;;5034557;28;20834;-77
2023/08/28 09:43:35;;;;;;;8.10;7.80;;;18.50;25.70;;;;;;5034879;28;20412;-76
2023/08/28 09:46:02;;;;;;;9.30;8.70;;;18.50;25.70;;;;;;5034630;28;20436;-77
2023/08/28 09:48:32;;;;;;;8.50;8.20;;;18.60;25.90;;;;;;5034681;28;20431;-76
2023/08/28 09:51:00;;;;;;;8.30;8.00;;;18.60;25.30;;;;;;5034501;28;20494;-76
2023/08/28 09:53:29;;;;;;;8.53;8.23;;;18.60;25.70;;;;;;5034953;28;20764;-75
2023/08/28 09:55:56;;;;;;;8.17;7.87;;;18.70;26.10;;;;;;5035326;28;20771;-75
2023/08/28 09:58:28;;;;;;;8.10;7.80;;;18.60;24.90;;;;;;5034295;28;20427;-75
2023/08/28 10:00:57;;;;;;;8.60;8.30;;;18.60;25.40;;;;;;5035367;28;20906;-76
2023/08/28 10:03:25;;;;;;;8.80;8.40;;;18.60;25.10;;;;;;5034501;28;20411;-76
2023/08/28 10:05:52;;;;;;;8.03;7.73;;;18.60;25.50;;;;;;5034309;28;20415;-76
2023/08/28 10:08:18;;;;;;;8.97;8.20;;;18.60;24.70;;;;;;5034343;28;20427;-77
2023/08/28 10:10:47;;;;;;;8.47;8.07;;;18.80;26.10;;;;;;5034671;28;20406;-77
2023/08/28 10:13:15;;;;;;;7.80;7.50;;;18.90;25.10;;;;;;5035232;28;21029;-76
2023/08/28 10:16:00;;;;;;;8.77;8.33;;;18.90;25.10;;;;;;5034836;28;20411;-77
2023/08/28 10:18:37;;;;;;;8.87;8.40;;;18.90;24.60;;;;;;5033046;28;20998;-77
2023/08/28 10:21:04;;;;;;;8.40;8.00;;;19.00;24.00;;;;;;5034695;28;20411;-77
2023/08/28 10:23:31;;;;;;;8.90;8.50;;;19.00;25.00;;;;;;5034656;28;20404;-77
2023/08/28 10:25:58;;;;;;;7.90;7.60;;;19.00;23.70;;;;;;5034804;28;20404;-78
2023/08/28 10:28:25;;;;;;;8.40;7.93;;;18.90;23.00;;;;;;5034506;28;20485;-77
2023/08/28 10:30:51;;;;;;;7.57;7.27;;;18.90;23.50;;;;;;5039221;28;20407;-77
2023/08/28 10:33:21;;;;;;;8.50;7.93;;;18.90;23.80;;;;;;5043862;28;20415;-76
2023/08/28 10:35:54;;;;;;;7.70;7.40;;;18.90;24.10;;;;;;5042869;28;20420;-76
2023/08/28 10:38:21;;;;;;;7.90;7.40;;;18.90;24.40;;;;;;5036195;28;20463;-76
2023/08/28 10:40:54;;;;;;;8.53;8.23;;;18.90;24.20;;;;;;5035343;28;20411;-76
2023/08/28 10:43:22;;;;;;;8.30;7.80;;;19.00;23.70;;;;;;5034641;28;20415;-76
2023/08/28 10:45:49;;;;;;;7.43;7.13;;;19.00;24.20;;;;;;5033843;28;20411;-76
2023/08/28 10:48:20;;;;;;;8.03;7.60;;;19.00;24.60;;;;;;5032242;28;20483;-77
2023/08/28 10:50:45;;;;;;;7.77;7.47;;;19.10;23.60;;;;;;5035470;28;20430;-76
2023/08/28 10:53:15;;;;;;;8.67;8.07;;;19.00;23.30;;;;;;5036107;28;20410;-77
2023/08/28 10:56:00;;;;;;;7.70;7.37;;;19.00;23.20;;;;;;5035702;28;20172;-77
2023/08/28 10:58:30;;;;;;;7.50;7.10;;;19.10;23.10;;;;;;5035116;28;20439;-76
2023/08/28 11:01:18;;;;;;;7.47;7.20;;;19.20;23.10;;;;;;5035487;28;20418;-76
2023/08/28 11:03:57;;;;;;;7.73;7.43;;;19.20;21.90;;;;;;5033244;28;20446;-77
2023/08/28 11:06:42;;;;;;;9.47;8.97;;;19.20;22.30;;;;;;5033179;28;20407;-77
2023/08/28 11:09:29;;;;;;;8.20;7.90;;;19.20;22.10;;;;;;5032516;28;20465;-76
2023/08/28 11:11:57;;;;;;;7.23;6.83;;;19.10;21.90;;;;;;5030546;28;20781;-76
2023/08/28 11:14:33;;;;;;;8.07;7.70;;;19.20;22.20;;;;;;5035347;28;20925;-77
2023/08/28 11:17:12;;;;;;;8.40;8.07;;;19.20;22.50;;;;;;5034875;28;20952;-78
2023/08/28 11:20:07;;;;;;;8.57;8.13;;;19.20;22.60;;;;;;5037250;28;20858;-76
2023/08/28 11:22:45;;;;;;;8.30;8.00;;;19.20;22.40;;;;;;5024819;28;20468;-78
2023/08/28 11:25:13;;;;;;;7.77;7.47;;;19.20;22.20;;;;;;5031824;28;21139;-78
2023/08/28 11:27:46;;;;;;;8.30;8.00;;;19.20;22.00;;;;;;5016949;28;20487;-78
2023/08/28 11:30:13;;;;;;;7.80;7.50;;;19.10;22.20;;;;;;5016846;28;20419;-79
2023/08/28 11:32:42;;;;;;;8.40;8.00;;;19.10;22.50;;;;;;5017488;28;20424;-78
2023/08/28 11:35:09;;;;;;;7.97;7.50;;;19.10;23.00;;;;;;5013587;28;20911;-76
2023/08/28 11:37:37;;;;;;;8.00;7.70;;;19.10;23.20;;;;;;5013863;28;20455;-76
2023/08/28 11:40:08;;;;;;;6.70;6.40;;;19.10;23.40;;;;;;5012600;28;20420;-77
2023/08/28 11:42:34;;;;;;;8.20;7.90;;;19.10;23.80;;;;;;5012222;28;20467;-77
2023/08/28 11:44:59;;;;;;;7.80;7.37;;;19.10;23.20;;;;;;5029993;28;20432;-76
2023/08/28 11:47:30;;;;;;;7.87;7.47;;;19.00;22.90;;;;;;5032984;28;20839;-76
2023/08/28 11:49:56;;;;;;;8.30;7.90;;;19.00;22.60;;;;;;5036444;28;20291;-79
2023/08/28 11:52:23;;;;;;;8.73;8.20;;;19.00;22.90;;;;;;5037321;28;20925;-78
2023/08/28 11:54:50;;;;;;;7.20;7.00;;;19.00;23.20;;;;;;5035387;28;20426;-76
2023/08/28 11:57:16;;;;;;;8.00;7.60;;;19.00;23.00;;;;;;5036354;28;20431;-79
2023/08/28 11:59:43;;;;;;;8.40;7.80;;;19.10;22.50;;;;;;5035699;28;20889;-78
2023/08/28 12:02:10;;;;;;;7.53;7.33;;;19.00;22.50;;;;;;5035482;28;20949;-78
2023/08/28 12:04:36;;;;;;;8.10;7.80;;;19.00;22.70;;;;;;5035810;28;20404;-78
2023/08/28 12:07:03;;;;;;;8.37;7.97;;;19.00;23.20;;;;;;5033095;28;20434;-79
2023/08/28 12:09:29;;;;;;;8.30;8.00;;;18.90;22.40;;;;;;5031944;28;20530;-77
2023/08/28 12:11:55;;;;;;;7.60;7.40;;;19.00;22.30;;;;;;5032247;28;21020;-77
2023/08/28 12:14:22;;;;;;;7.93;7.63;;;19.10;22.20;;;;;;5032582;28;20418;-77
2023/08/28 12:16:49;;;;;;;8.30;7.90;;;19.10;22.20;;;;;;5035219;28;20446;-77
2023/08/28 12:19:21;;;;;;;9.30;8.90;;;19.10;22.80;;;;;;5032932;28;20419;-77
2023/08/28 12:21:47;;;;;;;7.43;7.23;;;19.10;22.40;;;;;;5035579;28;20983;-77
2023/08/28 12:24:12;;;;;;;7.20;6.90;;;19.20;22.30;;;;;;5038350;28;20436;-77
2023/08/28 12:26:43;;;;;;;7.87;7.60;;;19.10;22.10;;;;;;5039129;28;20256;-77
2023/08/28 12:29:08;;;;;;;7.60;7.30;;;19.00;21.30;;;;;;5038180;28;20169;-77
2023/08/28 12:31:35;;;;;;;7.60;7.30;;;19.00;21.90;;;;;;5033909;28;20427;-77
2023/08/28 12:34:08;;;;;;;7.60;7.40;;;18.90;22.30;;;;;;5018703;28;20588;-77
2023/08/28 12:36:37;;;;;;;7.33;7.13;;;18.90;22.10;;;;;;5018862;28;20455;-77
2023/08/28 12:39:04;;;;;;;7.37;7.17;;;18.90;22.40;;;;;;5017940;28;20499;-77
2023/08/28 12:41:34;;;;;;;7.10;6.90;;;18.90;21.90;;;;;;5033571;28;20452;-77
2023/08/28 12:44:00;;;;;;;7.60;7.27;;;18.80;21.90;;;;;;5018278;28;20415;-77